Time;durP1;ratioP1;P1;durP2;ratioP2;P2;SDS_P1;SDS_P2;PMS_P1;PMS_P2;Temp;Humidity;BMP_temperature;BMP_pressure;BME280_temperature;BME280_humidity;BME280_pressure;Samples;Min_cycle;Max_cycle;Signal;HPM_P1;HPM_P2
2023/01/06 00:01:28;;;;;;;6.90;5.47;;;;;;;10.34;100.00;163266.53;5048045;28;20467;-64
2023/01/06 00:03:57;;;;;;;8.27;5.00;;;;;;;10.30;100.00;163257.09;5049457;28;20463;-64
2023/01/06 00:06:26;;;;;;;7.78;6.97;;;;;;;10.31;100.00;163259.78;5048857;28;20517;-64
2023/01/06 00:08:53;;;;;;;12.85;4.60;;;;;;;10.30;100.00;163258.41;5050126;28;20640;-65
2023/01/06 00:11:18;;;;;;;10.73;6.18;;;;;;;10.24;100.00;163240.91;5047955;28;20041;-64
2023/01/06 00:13:44;;;;;;;10.95;5.13;;;;;;;10.23;100.00;163238.19;5050340;28;20052;-64
2023/01/06 00:16:12;;;;;;;10.27;5.20;;;;;;;10.20;100.00;163231.41;5048454;28;20508;-64
2023/01/06 00:18:38;;;;;;;18.33;6.22;;;;;;;10.21;100.00;163232.78;5049929;28;20033;-64
2023/01/06 00:21:04;;;;;;;13.48;5.32;;;;;;;10.20;100.00;163230.06;5048213;28;20047;-65
2023/01/06 00:23:30;;;;;;;7.40;5.55;;;;;;;10.13;100.00;163213.88;5049843;28;20040;-64
2023/01/06 00:25:56;;;;;;;13.40;6.95;;;;;;;10.14;100.00;163216.59;5048294;28;20104;-64
2023/01/06 00:28:21;;;;;;;9.60;7.00;;;;;;;10.15;100.00;163219.28;5049894;28;20032;-64
2023/01/06 00:30:46;;;;;;;9.32;6.80;;;;;;;10.14;100.00;163216.59;5048293;28;20029;-64
2023/01/06 00:33:12;;;;;;;13.90;7.40;;;;;;;10.15;100.00;163219.28;5048805;28;20028;-64
2023/01/06 00:35:37;;;;;;;13.65;7.00;;;;;;;10.16;100.00;163221.94;5047218;28;20041;-63
2023/01/06 00:38:02;;;;;;;13.38;6.95;;;;;;;10.16;100.00;163221.94;5049471;28;20017;-63
2023/01/06 00:40:28;;;;;;;10.55;7.32;;;;;;;10.12;100.00;163211.19;5048007;28;20495;-64
2023/01/06 00:42:53;;;;;;;10.38;6.20;;;;;;;10.16;100.00;163220.63;5049692;28;20013;-63
2023/01/06 00:45:19;;;;;;;10.05;6.97;;;;;;;10.18;100.00;163224.66;5048346;28;20044;-64
2023/01/06 00:47:44;;;;;;;13.45;6.43;;;;;;;10.18;100.00;163224.66;5049267;28;20029;-63
2023/01/06 00:50:10;;;;;;;13.13;7.82;;;;;;;10.18;100.00;163224.66;5049633;28;20021;-64
2023/01/06 00:52:35;;;;;;;8.27;6.07;;;;;;;10.19;100.00;163227.38;5048110;28;20049;-64
2023/01/06 00:55:00;;;;;;;8.20;6.68;;;;;;;10.14;100.00;163215.22;5049141;28;20029;-64
2023/01/06 00:57:26;;;;;;;10.07;7.15;;;;;;;10.18;100.00;163224.66;5048015;28;20500;-64
2023/01/06 00:59:51;;;;;;;12.18;7.05;;;;;;;10.14;100.00;163216.59;5049520;28;20041;-64
2023/01/06 01:02:17;;;;;;;12.75;8.30;;;;;;;10.14;100.00;163215.22;5047503;28;20052;-64
2023/01/06 01:04:42;;;;;;;10.82;8.35;;;;;;;10.14;100.00;163215.22;5049825;28;20020;-64
2023/01/06 01:07:07;;;;;;;9.95;6.93;;;;;;;10.14;100.00;163215.22;5047821;28;20405;-64
2023/01/06 01:09:33;;;;;;;15.68;7.10;;;;;;;10.16;100.00;163221.94;5050046;28;20036;-64
2023/01/06 01:12:11;;;;;;;15.85;8.73;;;;;;;10.18;100.00;163226.03;5047949;28;20075;-64
2023/01/06 01:14:41;;;;;;;17.92;8.18;;;;;;;10.21;100.00;163232.78;5052964;28;20032;-64
2023/01/06 01:17:07;;;;;;;11.65;6.50;;;;;;;10.22;100.00;163235.47;5051358;28;20045;-64
2023/01/06 01:19:34;;;;;;;9.48;7.25;;;;;;;10.22;100.00;163236.81;5053225;28;20116;-64
2023/01/06 01:21:59;;;;;;;9.98;6.53;;;;;;;10.19;100.00;163228.75;5051520;28;20044;-65
2023/01/06 01:24:25;;;;;;;16.55;7.22;;;;;;;10.24;100.00;163240.91;5053165;28;20033;-65
2023/01/06 01:26:50;;;;;;;7.65;5.80;;;;;;;10.24;100.00;163240.91;5051946;28;20496;-65
2023/01/06 01:29:17;;;;;;;14.98;6.95;;;;;;;10.23;100.00;163238.19;5053243;28;20032;-61
2023/01/06 01:31:43;;;;;;;9.60;6.18;;;;;;;10.24;100.00;163240.91;5051500;28;20102;-64
2023/01/06 01:34:10;;;;;;;11.27;5.97;;;;;;;10.22;100.00;163236.81;5052847;28;20043;-64
2023/01/06 01:36:36;;;;;;;8.65;5.25;;;;;;;10.24;100.00;163240.91;5051838;28;20047;-64
2023/01/06 01:39:01;;;;;;;9.68;6.47;;;;;;;10.23;100.00;163238.19;5053601;28;20025;-65
2023/01/06 01:41:28;;;;;;;10.35;6.50;;;;;;;10.24;100.00;163240.91;5050900;28;20033;-64
2023/01/06 01:43:59;;;;;;;7.07;5.88;;;;;;;10.26;100.00;163247.63;5053016;28;20079;-65
2023/01/06 01:46:39;;;;;;;8.93;5.90;;;;;;;10.25;100.00;163243.56;5051657;28;20048;-65
2023/01/06 01:49:15;;;;;;;13.13;8.43;;;;;;;10.30;100.00;163257.09;5052538;28;20041;-65
2023/01/06 01:51:43;;;;;;;10.05;6.57;;;;;;;10.35;100.00;163270.56;5051505;28;20044;-64
2023/01/06 01:54:13;;;;;;;17.60;8.13;;;;;;;10.40;100.00;163282.78;5050839;28;20365;-64
2023/01/06 01:56:43;;;;;;;9.88;8.60;;;;;;;10.42;100.00;163288.19;5051340;28;20053;-65
2023/01/06 01:59:13;;;;;;;9.77;6.38;;;;;;;10.45;100.00;163296.25;5051415;28;20392;-65
2023/01/06 02:01:38;;;;;;;10.20;7.93;;;;;;;10.44;100.00;163294.91;5050841;28;20400;-66
2023/01/06 02:04:04;;;;;;;10.35;6.72;;;;;;;10.44;100.00;163294.91;5054027;28;20110;-65
2023/01/06 02:06:31;;;;;;;13.75;7.03;;;;;;;10.45;100.00;163297.63;5071162;28;20051;-64
2023/01/06 02:09:00;;;;;;;10.48;7.80;;;;;;;10.46;100.00;163298.97;5072424;28;20020;-65
2023/01/06 02:11:30;;;;;;;11.23;6.45;;;;;;;10.44;100.00;163294.91;5071061;28;20388;-63
2023/01/06 02:14:08;;;;;;;13.57;7.72;;;;;;;10.52;100.00;163313.81;5060133;28;20064;-64
2023/01/06 02:16:50;;;;;;;11.68;8.75;;;;;;;10.54;100.00;163319.19;5050821;28;20138;-63
2023/01/06 02:19:36;;;;;;;7.63;6.85;;;;;;;10.50;100.00;163308.41;5047426;28;20059;-64
2023/01/06 02:22:13;;;;;;;10.85;6.60;;;;;;;10.46;100.00;163300.28;5050986;28;20036;-65
2023/01/06 02:24:47;;;;;;;12.13;7.55;;;;;;;10.43;100.00;163292.22;5051807;28;20037;-65
2023/01/06 02:27:15;;;;;;;13.20;8.20;;;;;;;10.39;100.00;163281.38;5050603;28;20045;-64
2023/01/06 02:30:18;;;;;;;10.02;8.23;;;;;;;10.43;100.00;163290.84;5052594;28;20032;-63
2023/01/06 02:33:00;;;;;;;10.02;7.00;;;;;;;10.44;100.00;163293.53;5050233;28;20463;-63
2023/01/06 02:35:41;;;;;;;11.10;8.27;;;;;;;10.44;100.00;163294.91;5050444;28;20039;-64
2023/01/06 02:38:20;;;;;;;9.55;6.20;;;;;;;10.41;100.00;163286.81;5052032;28;20025;-63
2023/01/06 02:41:22;;;;;;;15.35;7.63;;;;;;;10.42;100.00;163289.50;5050251;28;20067;-63
2023/01/06 02:44:08;;;;;;;10.20;5.70;;;;;;;10.38;100.00;163278.72;5042317;28;20037;-64
2023/01/06 02:46:58;;;;;;;9.25;5.70;;;;;;;10.40;100.00;163284.09;5050185;28;20057;-63
2023/01/06 02:49:51;;;;;;;13.05;7.72;;;;;;;10.40;100.00;163284.09;5046389;28;20486;-63
2023/01/06 02:52:23;;;;;;;9.15;6.38;;;;;;;10.41;100.00;163286.81;5050312;28;20033;-65
2023/01/06 02:55:25;;;;;;;10.05;5.72;;;;;;;10.41;100.00;163286.81;5038733;28;20123;-66
2023/01/06 02:57:57;;;;;;;8.35;4.80;;;;;;;10.43;100.00;163292.22;5050295;28;20053;-65
2023/01/06 03:00:32;;;;;;;6.47;5.78;;;;;;;10.44;100.00;163294.91;5049849;28;20824;-65
2023/01/06 03:03:00;;;;;;;7.97;6.75;;;;;;;10.46;100.00;163300.28;5050852;28;20041;-64
2023/01/06 03:05:26;;;;;;;8.13;4.63;;;;;;;10.46;100.00;163300.28;5050054;28;20083;-64
2023/01/06 03:07:53;;;;;;;22.02;7.03;;;;;;;10.47;100.00;163303.00;5051300;28;20037;-63
2023/01/06 03:10:22;;;;;;;7.20;5.15;;;;;;;10.42;100.00;163289.50;5049553;28;20075;-63
2023/01/06 03:12:52;;;;;;;7.15;3.67;;;;;;;10.43;100.00;163290.84;5051094;28;20475;-64
2023/01/06 03:15:18;;;;;;;9.70;5.07;;;;;;;10.44;100.00;163294.91;5050064;28;20090;-63
2023/01/06 03:17:43;;;;;;;8.23;4.40;;;;;;;10.45;100.00;163296.25;5051057;28;20024;-64
2023/01/06 03:20:09;;;;;;;11.30;4.13;;;;;;;10.44;100.00;163293.53;5051101;28;20111;-64
2023/01/06 03:22:37;;;;;;;12.35;4.38;;;;;;;10.42;100.00;163289.50;5049589;28;20036;-64
2023/01/06 03:25:04;;;;;;;14.15;4.32;;;;;;;10.38;100.00;163278.72;5051138;28;20021;-64
2023/01/06 03:27:29;;;;;;;7.20;3.65;;;;;;;10.38;100.00;163278.72;5049752;28;20040;-64
2023/01/06 03:29:54;;;;;;;13.32;3.80;;;;;;;10.34;100.00;163267.84;5051240;28;20464;-64
2023/01/06 03:32:36;;;;;;;4.07;3.65;;;;;;;10.32;100.00;163263.81;5048751;28;20399;-64
2023/01/06 03:35:13;;;;;;;14.93;3.80;;;;;;;10.29;100.00;163254.38;5031154;28;20044;-64
2023/01/06 03:37:53;;;;;;;22.23;3.85;;;;;;;10.28;100.00;163251.66;5029499;28;20038;-64
2023/01/06 03:40:37;;;;;;;4.25;3.20;;;;;;;10.27;100.00;163248.97;5040158;28;20379;-63
2023/01/06 03:43:11;;;;;;;8.60;4.40;;;;;;;10.26;100.00;163246.25;5035893;28;20039;-65
2023/01/06 03:45:55;;;;;;;14.77;4.22;;;;;;;10.26;100.00;163246.25;5049312;28;20067;-65
2023/01/06 03:48:42;;;;;;;9.27;4.32;;;;;;;10.24;100.00;163242.22;5050571;28;20060;-65
2023/01/06 03:51:30;;;;;;;8.70;3.38;;;;;;;10.20;100.00;163230.06;5048891;28;20514;-65
2023/01/06 03:54:01;;;;;;;8.20;4.70;;;;;;;10.24;100.00;163240.91;5050178;28;20085;-63
2023/01/06 03:56:41;;;;;;;4.88;3.30;;;;;;;10.19;100.00;163227.38;5048998;28;20045;-63
2023/01/06 03:59:13;;;;;;;2.95;2.60;;;;;;;10.23;100.00;163238.19;5050571;28;20024;-63
2023/01/06 04:01:42;;;;;;;8.90;5.10;;;;;;;10.23;100.00;163238.19;5048782;28;20037;-64
2023/01/06 04:04:08;;;;;;;10.15;3.92;;;;;;;10.22;100.00;163235.47;5050091;28;20071;-64
2023/01/06 04:06:33;;;;;;;7.88;4.15;;;;;;;10.22;100.00;163235.47;5049289;28;20385;-64
2023/01/06 04:08:59;;;;;;;4.45;2.30;;;;;;;10.22;100.00;163235.47;5050322;28;20021;-64
2023/01/06 04:14:07;;;;;;;6.75;3.05;;;;;;;10.25;100.00;163244.94;5050026;28;20126;-65
2023/01/06 04:16:33;;;;;;;2.97;2.65;;;;;;;10.28;100.00;163251.66;5048939;28;20057;-65
2023/01/06 04:18:58;;;;;;;7.93;2.55;;;;;;;10.26;100.00;163246.25;5050436;28;20032;-66
2023/01/06 04:21:23;;;;;;;3.40;3.10;;;;;;;10.29;100.00;163254.38;5048701;28;20056;-66
2023/01/06 04:23:49;;;;;;;13.40;2.38;;;;;;;10.27;100.00;163250.34;5049824;28;20029;-66
2023/01/06 04:26:14;;;;;;;5.28;3.00;;;;;;;10.24;100.00;163242.22;5048972;28;20037;-65
2023/01/06 04:28:39;;;;;;;3.25;2.95;;;;;;;10.27;100.00;163248.97;5050481;28;20032;-67
2023/01/06 04:31:07;;;;;;;7.82;3.85;;;;;;;10.27;100.00;163248.97;5048554;28;20496;-63
2023/01/06 04:33:32;;;;;;;3.55;2.38;;;;;;;10.23;100.00;163238.19;5050448;28;20033;-63
2023/01/06 04:35:58;;;;;;;3.20;2.85;;;;;;;10.24;100.00;163240.91;5048856;28;20060;-63
2023/01/06 04:38:23;;;;;;;8.15;3.22;;;;;;;10.25;100.00;163243.56;5049593;28;20024;-62
2023/01/06 04:40:48;;;;;;;6.90;3.47;;;;;;;10.21;100.00;163232.78;5048512;28;20045;-62
2023/01/06 04:43:17;;;;;;;11.52;4.22;;;;;;;10.21;100.00;163234.09;5049879;28;20020;-63
2023/01/06 04:45:43;;;;;;;5.72;2.20;;;;;;;10.26;100.00;163246.25;5048188;28;20052;-64
2023/01/06 04:48:09;;;;;;;3.28;2.33;;;;;;;10.24;100.00;163240.91;5051457;28;20051;-63
2023/01/06 04:50:35;;;;;;;5.05;3.33;;;;;;;10.29;100.00;163255.72;5053004;28;20029;-62
2023/01/06 04:53:01;;;;;;;7.45;3.97;;;;;;;10.30;100.00;163258.41;5053513;28;20029;-62
2023/01/06 04:55:26;;;;;;;6.28;3.17;;;;;;;10.28;100.00;163251.66;5052450;28;20025;-62
2023/01/06 04:57:52;;;;;;;6.35;2.60;;;;;;;10.24;100.00;163240.91;5054361;28;20536;-62
2023/01/06 05:00:17;;;;;;;8.70;3.33;;;;;;;10.30;100.00;163257.09;5051496;28;20383;-62
2023/01/06 05:02:43;;;;;;;5.07;2.17;;;;;;;10.30;100.00;163257.09;5053467;28;20135;-62
2023/01/06 05:05:08;;;;;;;6.78;2.45;;;;;;;10.26;100.00;163247.63;5053730;28;20130;-62
2023/01/06 05:07:34;;;;;;;5.25;3.28;;;;;;;10.19;100.00;163228.75;5052102;28;20482;-63
2023/01/06 05:09:59;;;;;;;5.47;3.13;;;;;;;10.12;100.00;163211.19;5053666;28;20032;-63
2023/01/06 05:12:25;;;;;;;5.57;2.55;;;;;;;10.24;100.00;163240.91;5059261;28;20043;-65
2023/01/06 05:14:50;;;;;;;14.65;3.92;;;;;;;10.25;100.00;163244.94;5055008;28;20029;-65
2023/01/06 05:17:15;;;;;;;3.13;2.65;;;;;;;10.23;100.00;163239.53;5068070;28;20048;-65
2023/01/06 05:19:43;;;;;;;33.15;4.70;;;;;;;10.15;100.00;163219.28;5073626;28;20085;-65
2023/01/06 05:22:09;;;;;;;5.07;2.10;;;;;;;10.22;100.00;163236.81;5058144;28;20047;-65
2023/01/06 05:24:35;;;;;;;3.60;2.83;;;;;;;10.26;100.00;163247.63;5053563;28;20052;-66
2023/01/06 05:27:00;;;;;;;5.00;2.75;;;;;;;10.25;100.00;163243.56;5052068;28;20060;-65
2023/01/06 05:29:25;;;;;;;4.03;2.55;;;;;;;10.24;100.00;163240.91;5052814;28;20028;-65
2023/01/06 05:31:51;;;;;;;4.07;2.78;;;;;;;10.31;100.00;163259.78;5051487;28;20044;-65
2023/01/06 05:34:16;;;;;;;2.75;2.55;;;;;;;10.31;100.00;163259.78;5065717;28;20040;-65
2023/01/06 05:36:41;;;;;;;2.70;1.90;;;;;;;10.27;100.00;163248.97;5064351;28;20048;-65
2023/01/06 05:39:07;;;;;;;2.13;1.98;;;;;;;10.30;100.00;163257.09;5073092;28;20020;-66
2023/01/06 05:41:32;;;;;;;3.33;2.70;;;;;;;10.29;100.00;163254.38;5059395;28;20060;-65
2023/01/06 05:43:58;;;;;;;3.65;2.25;;;;;;;10.31;100.00;163261.13;5052874;28;20427;-65
2023/01/06 05:46:23;;;;;;;6.82;2.22;;;;;;;10.28;100.00;163251.66;5050726;28;20045;-64
2023/01/06 05:48:48;;;;;;;4.43;2.53;;;;;;;10.26;100.00;163246.25;5053179;28;20016;-64
2023/01/06 05:51:15;;;;;;;3.55;2.50;;;;;;;10.21;100.00;163234.09;5050704;28;20044;-65
2023/01/06 05:53:42;;;;;;;7.68;3.15;;;;;;;10.28;100.00;163251.66;5053143;28;20106;-65
2023/01/06 05:56:10;;;;;;;6.57;3.60;;;;;;;10.34;100.00;163266.53;5051324;28;20044;-65
2023/01/06 05:58:39;;;;;;;3.13;2.80;;;;;;;10.34;100.00;163267.84;5052261;28;20025;-64
2023/01/06 06:01:05;;;;;;;5.22;3.50;;;;;;;10.33;100.00;163265.16;5050879;28;20490;-65
2023/01/06 06:03:31;;;;;;;3.67;2.72;;;;;;;10.30;100.00;163257.09;5052702;28;20041;-65
2023/01/06 06:06:04;;;;;;;3.42;2.22;;;;;;;10.28;100.00;163253.00;5051074;28;20466;-65
2023/01/06 06:08:30;;;;;;;3.42;3.10;;;;;;;10.29;100.00;163255.72;5052507;28;20614;-63
2023/01/06 06:10:55;;;;;;;4.20;2.38;;;;;;;10.30;100.00;163258.41;5051412;28;20036;-64
2023/01/06 06:13:20;;;;;;;5.55;2.63;;;;;;;10.28;100.00;163251.66;5051671;28;20341;-64
2023/01/06 06:15:46;;;;;;;2.25;1.92;;;;;;;10.29;100.00;163254.38;5051140;28;20045;-62
2023/01/06 06:18:42;;;;;;;3.08;2.78;;;;;;;10.32;100.00;163263.81;5052392;28;20053;-60
2023/01/06 06:21:12;;;;;;;5.13;2.22;;;;;;;10.37;100.00;163276.03;5050561;28;20512;-59
2023/01/06 06:23:39;;;;;;;4.85;2.90;;;;;;;10.38;100.00;163278.72;5052642;28;20083;-59
2023/01/06 06:26:04;;;;;;;5.80;2.60;;;;;;;10.39;100.00;163281.38;5050751;28;20036;-59
2023/01/06 06:28:30;;;;;;;4.07;2.50;;;;;;;10.38;100.00;163277.34;5051919;28;20028;-59
2023/01/06 06:31:03;;;;;;;4.53;2.30;;;;;;;10.42;100.00;163288.19;5050994;28;20395;-59
2023/01/06 06:33:29;;;;;;;8.38;3.55;;;;;;;10.42;100.00;163289.50;5052573;28;20017;-59
2023/01/06 06:35:56;;;;;;;3.20;2.20;;;;;;;10.43;100.00;163292.22;5049053;28;20091;-59
2023/01/06 06:38:21;;;;;;;5.68;3.42;;;;;;;10.41;100.00;163286.81;5052107;28;20029;-59
2023/01/06 06:40:47;;;;;;;2.85;1.95;;;;;;;10.43;100.00;163292.22;5050603;28;20491;-59
2023/01/06 06:43:12;;;;;;;7.05;2.38;;;;;;;10.44;100.00;163294.91;5051695;28;20387;-59
2023/01/06 06:45:37;;;;;;;4.03;2.22;;;;;;;10.43;100.00;163292.22;5050513;28;20072;-59
2023/01/06 06:48:03;;;;;;;6.72;2.30;;;;;;;10.31;100.00;163259.78;5052177;28;20025;-59
2023/01/06 06:50:28;;;;;;;6.38;3.45;;;;;;;10.29;100.00;163254.38;5050040;28;20368;-59
2023/01/06 06:52:54;;;;;;;6.35;3.13;;;;;;;10.23;100.00;163238.19;5051954;28;20024;-60
2023/01/06 06:55:19;;;;;;;6.40;2.05;;;;;;;10.20;100.00;163230.06;5050146;28;20029;-59
2023/01/06 06:57:45;;;;;;;2.00;1.90;;;;;;;10.22;100.00;163235.47;5051414;28;20074;-59
2023/01/06 07:00:10;;;;;;;4.03;2.38;;;;;;;10.22;100.00;163235.47;5051444;28;20032;-59
2023/01/06 07:02:36;;;;;;;4.20;2.67;;;;;;;10.16;100.00;163221.94;5047209;28;20141;-59
2023/01/06 07:05:01;;;;;;;4.82;3.85;;;;;;;10.09;100.00;163201.75;5050132;28;20545;-59
2023/01/06 07:07:27;;;;;;;3.38;2.92;;;;;;;10.03;100.00;163186.88;5048349;28;20454;-60
2023/01/06 07:09:52;;;;;;;3.78;2.53;;;;;;;10.01;100.00;163181.53;5050241;28;20033;-60
2023/01/06 07:12:17;;;;;;;7.32;3.03;;;;;;;10.04;100.00;163189.59;5049000;28;20044;-59
2023/01/06 07:14:43;;;;;;;4.05;2.50;;;;;;;10.02;100.00;163184.19;5051237;28;20082;-60
2023/01/06 07:17:08;;;;;;;3.80;2.45;;;;;;;10.05;100.00;163192.28;5049672;28;20044;-59
2023/01/06 07:19:33;;;;;;;2.70;2.50;;;;;;;10.02;100.00;163184.19;5051246;28;20515;-59
2023/01/06 07:21:59;;;;;;;3.70;2.95;;;;;;;10.05;100.00;163190.97;5049178;28;20052;-60
2023/01/06 07:24:24;;;;;;;6.32;4.55;;;;;;;10.06;100.00;163195.00;5050418;28;20021;-60
2023/01/06 07:26:49;;;;;;;3.67;2.55;;;;;;;10.10;100.00;163205.78;5048086;28;20049;-60
2023/01/06 07:29:15;;;;;;;3.25;3.05;;;;;;;10.13;100.00;163213.88;5049183;28;20420;-60
2023/01/06 07:31:40;;;;;;;2.83;2.55;;;;;;;10.13;100.00;163213.88;5036669;28;20049;-60
2023/01/06 07:34:06;;;;;;;6.30;2.97;;;;;;;10.19;100.00;163227.38;5029721;28;20398;-60
2023/01/06 07:36:31;;;;;;;4.38;3.00;;;;;;;10.23;100.00;163239.53;5039262;28;20048;-60
2023/01/06 07:38:56;;;;;;;5.88;3.28;;;;;;;10.21;100.00;163234.09;5049058;28;20028;-60
2023/01/06 07:41:22;;;;;;;4.68;2.97;;;;;;;10.14;100.00;163216.59;5049161;28;20470;-60
2023/01/06 07:43:47;;;;;;;5.80;2.85;;;;;;;10.12;100.00;163211.19;5050122;28;20031;-60
2023/01/06 07:46:12;;;;;;;3.42;2.88;;;;;;;10.14;100.00;163216.59;5048469;28;20499;-60
2023/01/06 07:48:38;;;;;;;3.03;2.83;;;;;;;10.15;100.00;163219.28;5050895;28;20357;-60
2023/01/06 07:51:03;;;;;;;5.60;3.20;;;;;;;10.08;100.00;163200.41;5049106;28;20043;-60
2023/01/06 07:53:28;;;;;;;4.57;2.85;;;;;;;10.00;100.00;163180.16;5050786;28;20028;-60
2023/01/06 07:55:54;;;;;;;3.47;3.17;;;;;;;9.99;100.00;163176.09;5049189;28;20041;-60
2023/01/06 07:58:22;;;;;;;3.70;3.40;;;;;;;9.84;100.00;163138.34;5050019;28;20087;-60
2023/01/06 08:00:48;;;;;;;3.90;3.60;;;;;;;9.81;100.00;163130.22;5048875;28;20508;-60
2023/01/06 08:03:13;;;;;;;4.35;3.95;;;;;;;9.82;100.00;163132.94;5049497;28;20049;-60
2023/01/06 08:05:40;;;;;;;4.63;3.75;;;;;;;9.77;100.00;163119.44;5044749;28;20099;-60
2023/01/06 08:08:06;;;;;;;4.40;4.00;;;;;;;9.78;100.00;163122.16;5030714;28;20041;-60
2023/01/06 08:10:32;;;;;;;4.15;3.25;;;;;;;9.77;100.00;163119.44;5031248;28;20057;-60
2023/01/06 08:12:58;;;;;;;4.53;3.45;;;;;;;9.79;100.00;163124.81;5050337;28;20113;-60
2023/01/06 08:15:23;;;;;;;3.67;3.45;;;;;;;9.78;100.00;163122.16;5048682;28;20083;-60
2023/01/06 08:17:52;;;;;;;7.18;4.68;;;;;;;9.76;100.00;163116.75;5050562;28;20127;-60
2023/01/06 08:20:17;;;;;;;4.55;3.97;;;;;;;9.76;100.00;163116.75;5048719;28;20075;-59
2023/01/06 08:22:43;;;;;;;5.50;4.03;;;;;;;9.69;100.00;163097.84;5052674;28;20027;-60
2023/01/06 08:25:08;;;;;;;5.55;5.00;;;;;;;9.68;100.00;163096.47;5054131;28;20021;-60
2023/01/06 08:27:34;;;;;;;4.03;3.72;;;;;;;9.70;100.00;163100.56;5052875;28;20045;-60
2023/01/06 08:29:59;;;;;;;5.30;4.32;;;;;;;9.67;100.00;163092.44;5054219;28;20472;-60
2023/01/06 08:32:24;;;;;;;5.43;4.35;;;;;;;9.67;100.00;163093.81;5050996;28;20045;-60
2023/01/06 08:34:50;;;;;;;12.00;6.57;;;;;;;9.66;100.00;163089.75;5052013;28;20021;-60
2023/01/06 08:37:15;;;;;;;5.72;4.97;;;;;;;9.63;100.00;163081.69;5050908;28;20095;-60
2023/01/06 08:39:40;;;;;;;7.65;5.57;;;;;;;9.68;100.00;163095.16;5052469;28;20032;-60
2023/01/06 08:42:06;;;;;;;14.27;6.68;;;;;;;9.66;100.00;163089.75;5050225;28;20048;-60
2023/01/06 08:44:31;;;;;;;9.05;5.80;;;;;;;9.66;100.00;163091.13;5052292;28;20071;-60
2023/01/06 08:46:56;;;;;;;5.63;5.20;;;;;;;9.63;100.00;163081.69;5051576;28;20044;-60
2023/01/06 08:49:22;;;;;;;5.15;4.63;;;;;;;9.65;100.00;163087.03;5053758;28;20025;-60
2023/01/06 08:51:47;;;;;;;6.70;5.30;;;;;;;9.55;100.00;163060.09;5052667;28;20037;-60
2023/01/06 08:54:13;;;;;;;6.32;5.78;;;;;;;9.67;100.00;163092.44;5054184;28;20036;-60
2023/01/06 08:56:39;;;;;;;5.88;5.10;;;;;;;9.71;100.00;163101.91;5052455;28;20547;-60
2023/01/06 08:59:04;;;;;;;8.45;6.13;;;;;;;9.77;100.00;163119.44;5054002;28;20025;-60
2023/01/06 09:01:35;;;;;;;6.10;5.60;;;;;;;9.78;100.00;163122.16;5052588;28;20037;-60
2023/01/06 09:04:04;;;;;;;5.28;4.88;;;;;;;9.83;100.00;163135.63;5052170;28;20056;-60
2023/01/06 09:06:30;;;;;;;6.10;5.53;;;;;;;9.82;100.00;163131.59;5051692;28;20419;-60
2023/01/06 09:08:56;;;;;;;7.22;5.43;;;;;;;9.86;100.00;163141.03;5053303;28;20033;-60
2023/01/06 09:11:22;;;;;;;5.20;4.80;;;;;;;9.98;100.00;163173.41;5050987;28;20040;-59
2023/01/06 09:13:49;;;;;;;8.98;7.35;;;;;;;10.07;100.00;163196.31;5053157;28;20040;-60
2023/01/06 09:16:15;;;;;;;4.72;4.32;;;;;;;10.09;100.00;163201.75;5051586;28;20091;-60
2023/01/06 09:18:48;;;;;;;6.05;5.55;;;;;;;10.09;100.00;163203.06;5052993;28;20123;-60
2023/01/06 09:21:13;;;;;;;5.20;4.80;;;;;;;10.24;100.00;163240.91;5048906;28;20115;-59
2023/01/06 09:23:39;;;;;;;6.07;5.18;;;;;;;10.41;100.00;163286.81;5031779;28;20099;-59
2023/01/06 09:26:04;;;;;;;6.82;4.82;;;;;;;10.45;100.00;163297.63;5030872;28;20429;-59
2023/01/06 09:28:31;;;;;;;5.75;4.63;;;;;;;10.47;100.00;163303.00;5051666;28;20442;-59
2023/01/06 09:30:56;;;;;;;4.68;4.28;;;;;;;10.44;100.00;163294.91;5051669;28;20037;-59
2023/01/06 09:33:21;;;;;;;5.50;4.32;;;;;;;10.45;100.00;163296.25;5049599;28;20060;-59
2023/01/06 09:35:47;;;;;;;9.95;7.13;;;;;;;10.44;100.00;163294.91;5051703;28;20035;-59
2023/01/06 09:38:13;;;;;;;4.10;3.78;;;;;;;10.53;100.00;163317.84;5042918;28;20049;-59
2023/01/06 09:41:09;;;;;;;4.35;3.95;;;;;;;10.71;100.00;163365.09;5048589;28;20025;-59
2023/01/06 09:43:47;;;;;;;5.20;4.78;;;;;;;10.76;100.00;163377.25;5034640;28;20492;-59
2023/01/06 09:46:16;;;;;;;12.20;6.00;;;;;;;10.76;100.00;163377.25;5035764;28;20016;-59
2023/01/06 09:48:52;;;;;;;6.20;5.60;;;;;;;10.50;100.00;163308.41;5053021;28;20490;-59
2023/01/06 09:51:21;;;;;;;5.88;4.88;;;;;;;10.65;100.00;163348.91;5037167;28;20389;-59
2023/01/06 09:53:52;;;;;;;12.13;6.97;;;;;;;10.68;100.00;163357.03;5023481;28;20018;-59
2023/01/06 09:56:21;;;;;;;6.50;5.07;;;;;;;10.53;100.00;163316.53;5032942;28;20038;-59
2023/01/06 09:59:13;;;;;;;5.05;4.75;;;;;;;10.61;100.00;163338.13;5052574;28;20472;-59
2023/01/06 10:01:47;;;;;;;5.38;4.88;;;;;;;10.61;100.00;163338.13;5050809;28;20036;-59
2023/01/06 10:04:23;;;;;;;7.50;5.43;;;;;;;10.86;100.00;163402.88;5052127;28;20512;-59
2023/01/06 10:06:56;;;;;;;4.72;4.30;;;;;;;11.39;100.00;163543.31;5051224;28;20063;-59
2023/01/06 10:09:36;;;;;;;4.88;4.57;;;;;;;11.83;100.00;163656.75;5052306;28;20029;-59
2023/01/06 10:12:21;;;;;;;5.53;3.15;;;;;;;11.84;100.00;163659.47;5050684;28;20037;-59
2023/01/06 10:15:25;;;;;;;5.45;4.28;;;;;;;12.11;100.00;163731.13;5052570;28;20476;-59
2023/01/06 10:18:14;;;;;;;4.40;2.83;;;;;;;12.31;100.00;163783.84;5015660;28;20053;-59
2023/01/06 10:21:07;;;;;;;8.85;4.20;;;;;;;12.88;100.00;163932.47;5012815;28;20026;-59
2023/01/06 10:23:41;;;;;;;5.43;3.13;;;;;;;12.79;100.00;163908.13;5031235;28;20045;-59
2023/01/06 10:26:21;;;;;;;9.32;3.00;;;;;;;12.46;100.00;163823.00;5030324;28;20025;-59
2023/01/06 10:28:55;;;;;;;9.13;4.10;;;;;;;12.01;100.00;163704.09;5052207;28;20025;-59
2023/01/06 10:31:26;;;;;;;7.00;3.05;;;;;;;11.74;100.00;163635.16;5050500;28;20036;-59
2023/01/06 10:33:54;;;;;;;6.80;3.90;;;;;;;11.58;100.00;163591.91;5052177;28;20082;-59
2023/01/06 10:36:39;;;;;;;6.53;2.73;;;;;;;11.54;100.00;163581.13;5050465;28;20052;-60
2023/01/06 10:39:12;;;;;;;4.10;2.85;;;;;;;11.36;100.00;163535.19;5051254;28;20471;-59
2023/01/06 10:41:40;;;;;;;8.98;3.80;;;;;;;11.32;100.00;163524.41;5049729;28;20381;-59
2023/01/06 10:44:06;;;;;;;;;;;;;;;11.61;100.00;163598.72;5052553;28;20077;-59
2023/01/06 10:46:34;;;;;;;6.25;4.25;;;;;;;11.31;100.00;163521.72;5049207;28;19913;-59
2023/01/06 10:49:08;;;;;;;9.32;3.08;;;;;;;11.00;100.00;163440.69;5051884;28;20020;-59
2023/01/06 10:51:42;;;;;;;7.50;3.28;;;;;;;10.67;100.00;163354.31;5049169;28;20048;-59
2023/01/06 10:54:12;;;;;;;5.15;3.70;;;;;;;10.34;100.00;163267.84;5050749;28;20593;-59
2023/01/06 10:56:44;;;;;;;6.82;3.10;;;;;;;10.19;100.00;163227.38;5049796;28;20052;-59
2023/01/06 10:59:10;;;;;;;3.95;2.75;;;;;;;10.14;100.00;163216.59;5051298;28;20055;-59
2023/01/06 11:01:48;;;;;;;5.40;2.90;;;;;;;10.02;100.00;163184.19;5035959;28;20041;-59
2023/01/06 11:04:14;;;;;;;6.28;3.00;;;;;;;9.98;100.00;163174.72;5029550;28;20428;-59
2023/01/06 11:06:45;;;;;;;4.55;2.45;;;;;;;9.88;100.00;163146.41;5035657;28;20087;-59
2023/01/06 11:09:28;;;;;;;5.20;2.92;;;;;;;9.91;100.00;163154.50;5021908;28;20052;-59
2023/01/06 11:11:56;;;;;;;5.70;3.75;;;;;;;9.83;100.00;163135.63;5033024;28;20063;-59
2023/01/06 11:14:27;;;;;;;7.10;3.70;;;;;;;9.77;100.00;163119.44;5045609;28;20045;-59
2023/01/06 11:17:14;;;;;;;6.07;3.55;;;;;;;9.78;100.00;163122.16;5049577;28;20120;-59
2023/01/06 11:19:42;;;;;;;5.65;2.67;;;;;;;9.72;100.00;163105.91;5051326;28;20036;-59
2023/01/06 11:22:34;;;;;;;4.07;3.10;;;;;;;9.64;100.00;163084.38;5049667;28;20041;-59
2023/01/06 11:25:01;;;;;;;8.10;2.50;;;;;;;9.72;100.00;163105.91;5050855;28;20067;-59
2023/01/06 11:27:26;;;;;;;10.98;3.80;;;;;;;9.84;100.00;163136.97;5049536;28;20041;-59
2023/01/06 11:29:51;;;;;;;10.35;3.70;;;;;;;9.84;100.00;163138.34;5055589;28;20507;-64